sensor_id;sensor_type;location;lat;lon;timestamp;temperature;humidity
31038;DHT22;17702;47.590;7.666;2023-07-24T00:01:27;23.60;80.00
31038;DHT22;17702;47.590;7.666;2023-07-24T00:03:53;23.50;81.20
31038;DHT22;17702;47.590;7.666;2023-07-24T00:06:20;23.50;83.30
31038;DHT22;17702;47.590;7.666;2023-07-24T00:08:45;23.50;83.00
31038;DHT22;17702;47.590;7.666;2023-07-24T00:11:11;23.50;83.20
31038;DHT22;17702;47.590;7.666;2023-07-24T00:13:36;23.40;82.60
31038;DHT22;17702;47.590;7.666;2023-07-24T00:16:07;23.40;83.10
31038;DHT22;17702;47.590;7.666;2023-07-24T00:18:33;23.30;82.80
31038;DHT22;17702;47.590;7.666;2023-07-24T00:20:58;23.30;82.50
31038;DHT22;17702;47.590;7.666;2023-07-24T00:23:24;23.30;80.90
31038;DHT22;17702;47.590;7.666;2023-07-24T00:25:49;23.30;80.70
31038;DHT22;17702;47.590;7.666;2023-07-24T00:28:15;23.30;82.40
31038;DHT22;17702;47.590;7.666;2023-07-24T00:30:40;23.30;83.10
31038;DHT22;17702;47.590;7.666;2023-07-24T00:33:07;23.30;84.50
31038;DHT22;17702;47.590;7.666;2023-07-24T00:35:32;23.20;84.60
31038;DHT22;17702;47.590;7.666;2023-07-24T00:37:58;23.10;85.20
31038;DHT22;17702;47.590;7.666;2023-07-24T00:40:24;23.00;85.70
31038;DHT22;17702;47.590;7.666;2023-07-24T00:42:49;23.00;86.20
31038;DHT22;17702;47.590;7.666;2023-07-24T00:45:15;22.90;86.50
31038;DHT22;17702;47.590;7.666;2023-07-24T00:47:44;22.80;87.10
31038;DHT22;17702;47.590;7.666;2023-07-24T00:50:11;22.80;87.30
31038;DHT22;17702;47.590;7.666;2023-07-24T00:52:37;22.70;86.20
31038;DHT22;17702;47.590;7.666;2023-07-24T00:55:03;22.70;86.50
31038;DHT22;17702;47.590;7.666;2023-07-24T00:57:29;22.60;85.90
31038;DHT22;17702;47.590;7.666;2023-07-24T00:59:54;22.60;85.50
31038;DHT22;17702;47.590;7.666;2023-07-24T01:02:20;22.60;87.50
31038;DHT22;17702;47.590;7.666;2023-07-24T01:04:46;22.60;88.40
31038;DHT22;17702;47.590;7.666;2023-07-24T01:07:12;22.50;88.00
31038;DHT22;17702;47.590;7.666;2023-07-24T01:09:38;22.50;89.90
31038;DHT22;17702;47.590;7.666;2023-07-24T01:12:13;22.40;90.30
31038;DHT22;17702;47.590;7.666;2023-07-24T01:14:52;22.30;90.80
31038;DHT22;17702;47.590;7.666;2023-07-24T01:17:24;22.30;90.70
31038;DHT22;17702;47.590;7.666;2023-07-24T01:19:58;22.20;91.40
31038;DHT22;17702;47.590;7.666;2023-07-24T01:25:10;22.10;91.50
31038;DHT22;17702;47.590;7.666;2023-07-24T01:27:44;22.10;91.80
31038;DHT22;17702;47.590;7.666;2023-07-24T01:30:11;22.10;92.30
31038;DHT22;17702;47.590;7.666;2023-07-24T01:32:37;22.10;92.30
31038;DHT22;17702;47.590;7.666;2023-07-24T01:35:03;22.10;92.70
31038;DHT22;17702;47.590;7.666;2023-07-24T01:37:30;22.00;93.40
31038;DHT22;17702;47.590;7.666;2023-07-24T01:39:56;22.00;93.30
31038;DHT22;17702;47.590;7.666;2023-07-24T01:42:23;21.90;93.20
31038;DHT22;17702;47.590;7.666;2023-07-24T01:44:54;21.90;93.50
31038;DHT22;17702;47.590;7.666;2023-07-24T01:47:20;21.90;94.20
31038;DHT22;17702;47.590;7.666;2023-07-24T01:49:45;21.80;93.50
31038;DHT22;17702;47.590;7.666;2023-07-24T01:52:11;21.90;94.10
31038;DHT22;17702;47.590;7.666;2023-07-24T01:54:36;21.80;94.30
31038;DHT22;17702;47.590;7.666;2023-07-24T01:57:02;21.80;94.60
31038;DHT22;17702;47.590;7.666;2023-07-24T01:59:28;21.80;94.60
31038;DHT22;17702;47.590;7.666;2023-07-24T02:01:53;21.80;94.60
31038;DHT22;17702;47.590;7.666;2023-07-24T02:04:19;21.80;94.60
31038;DHT22;17702;47.590;7.666;2023-07-24T02:06:48;21.70;95.10
31038;DHT22;17702;47.590;7.666;2023-07-24T02:09:14;21.70;95.30
31038;DHT22;17702;47.590;7.666;2023-07-24T02:11:39;21.70;95.30
31038;DHT22;17702;47.590;7.666;2023-07-24T02:14:05;21.60;95.30
31038;DHT22;17702;47.590;7.666;2023-07-24T02:16:31;21.50;95.50
31038;DHT22;17702;47.590;7.666;2023-07-24T02:18:56;21.50;96.10
31038;DHT22;17702;47.590;7.666;2023-07-24T02:21:22;21.50;96.40
31038;DHT22;17702;47.590;7.666;2023-07-24T02:23:47;21.40;96.40
31038;DHT22;17702;47.590;7.666;2023-07-24T02:26:13;21.40;96.60
31038;DHT22;17702;47.590;7.666;2023-07-24T02:28:38;21.40;96.20
31038;DHT22;17702;47.590;7.666;2023-07-24T02:31:04;21.40;96.90
31038;DHT22;17702;47.590;7.666;2023-07-24T02:33:30;21.30;96.90
31038;DHT22;17702;47.590;7.666;2023-07-24T02:35:56;21.30;96.70
31038;DHT22;17702;47.590;7.666;2023-07-24T02:38:21;21.20;97.00
31038;DHT22;17702;47.590;7.666;2023-07-24T02:40:47;21.20;97.40
31038;DHT22;17702;47.590;7.666;2023-07-24T02:43:12;21.10;97.90
31038;DHT22;17702;47.590;7.666;2023-07-24T02:45:38;21.10;97.60
31038;DHT22;17702;47.590;7.666;2023-07-24T02:48:05;21.10;97.80
31038;DHT22;17702;47.590;7.666;2023-07-24T02:50:30;21.10;97.80
31038;DHT22;17702;47.590;7.666;2023-07-24T02:52:56;21.10;98.50
31038;DHT22;17702;47.590;7.666;2023-07-24T02:55:21;21.10;98.90
31038;DHT22;17702;47.590;7.666;2023-07-24T02:57:47;21.10;98.60
31038;DHT22;17702;47.590;7.666;2023-07-24T03:00:13;21.10;98.50
31038;DHT22;17702;47.590;7.666;2023-07-24T03:02:39;21.10;98.70
31038;DHT22;17702;47.590;7.666;2023-07-24T03:05:05;21.10;98.80
31038;DHT22;17702;47.590;7.666;2023-07-24T03:07:31;21.00;98.70
31038;DHT22;17702;47.590;7.666;2023-07-24T03:09:57;21.00;98.70
31038;DHT22;17702;47.590;7.666;2023-07-24T03:12:22;21.00;99.20
31038;DHT22;17702;47.590;7.666;2023-07-24T03:14:48;21.00;99.70
31038;DHT22;17702;47.590;7.666;2023-07-24T03:17:13;21.00;99.40
31038;DHT22;17702;47.590;7.666;2023-07-24T03:19:40;21.00;99.70
31038;DHT22;17702;47.590;7.666;2023-07-24T03:22:06;21.00;99.90
31038;DHT22;17702;47.590;7.666;2023-07-24T03:24:32;21.10;99.90
31038;DHT22;17702;47.590;7.666;2023-07-24T03:26:57;21.10;99.90
31038;DHT22;17702;47.590;7.666;2023-07-24T03:29:23;21.10;99.90
31038;DHT22;17702;47.590;7.666;2023-07-24T03:31:48;21.10;99.80
31038;DHT22;17702;47.590;7.666;2023-07-24T03:34:14;21.10;99.20
31038;DHT22;17702;47.590;7.666;2023-07-24T03:36:40;21.10;99.20
31038;DHT22;17702;47.590;7.666;2023-07-24T03:39:09;21.10;98.90
31038;DHT22;17702;47.590;7.666;2023-07-24T03:41:34;21.20;99.00
31038;DHT22;17702;47.590;7.666;2023-07-24T03:44:00;21.20;98.70
31038;DHT22;17702;47.590;7.666;2023-07-24T03:46:25;21.30;99.10
31038;DHT22;17702;47.590;7.666;2023-07-24T03:48:51;21.30;98.10
31038;DHT22;17702;47.590;7.666;2023-07-24T03:51:17;21.30;97.70
31038;DHT22;17702;47.590;7.666;2023-07-24T03:53:42;21.30;97.90
31038;DHT22;17702;47.590;7.666;2023-07-24T03:56:08;21.30;98.20
31038;DHT22;17702;47.590;7.666;2023-07-24T03:58:33;21.30;98.00
31038;DHT22;17702;47.590;7.666;2023-07-24T04:00:59;21.40;97.90
31038;DHT22;17702;47.590;7.666;2023-07-24T04:03:25;21.40;98.10
31038;DHT22;17702;47.590;7.666;2023-07-24T04:05:50;21.40;98.00
31038;DHT22;17702;47.590;7.666;2023-07-24T04:08:16;21.40;97.80
31038;DHT22;17702;47.590;7.666;2023-07-24T04:10:41;21.30;97.90
31038;DHT22;17702;47.590;7.666;2023-07-24T04:13:07;21.40;98.20
31038;DHT22;17702;47.590;7.666;2023-07-24T04:15:32;21.40;98.40
31038;DHT22;17702;47.590;7.666;2023-07-24T04:17:58;21.40;99.60
31038;DHT22;17702;47.590;7.666;2023-07-24T04:20:24;21.30;99.90
31038;DHT22;17702;47.590;7.666;2023-07-24T04:22:49;21.30;99.90
31038;DHT22;17702;47.590;7.666;2023-07-24T04:25:15;21.30;99.90
31038;DHT22;17702;47.590;7.666;2023-07-24T04:27:41;21.30;99.90
31038;DHT22;17702;47.590;7.666;2023-07-24T04:30:07;21.20;99.90
31038;DHT22;17702;47.590;7.666;2023-07-24T04:32:32;21.20;99.90
31038;DHT22;17702;47.590;7.666;2023-07-24T04:34:58;21.20;99.90
31038;DHT22;17702;47.590;7.666;2023-07-24T04:37:24;21.20;99.90
31038;DHT22;17702;47.590;7.666;2023-07-24T04:39:49;21.30;99.90
31038;DHT22;17702;47.590;7.666;2023-07-24T04:42:15;21.40;99.90
31038;DHT22;17702;47.590;7.666;2023-07-24T04:44:40;21.30;99.90
31038;DHT22;17702;47.590;7.666;2023-07-24T04:47:06;21.30;99.90
31038;DHT22;17702;47.590;7.666;2023-07-24T04:49:32;21.30;99.90
31038;DHT22;17702;47.590;7.666;2023-07-24T04:51:58;21.20;99.90
31038;DHT22;17702;47.590;7.666;2023-07-24T04:54:24;21.20;99.90
31038;DHT22;17702;47.590;7.666;2023-07-24T04:56:50;21.20;99.90
31038;DHT22;17702;47.590;7.666;2023-07-24T04:59:15;21.20;99.90
31038;DHT22;17702;47.590;7.666;2023-07-24T05:01:41;21.20;99.90
31038;DHT22;17702;47.590;7.666;2023-07-24T05:04:07;21.10;99.90
31038;DHT22;17702;47.590;7.666;2023-07-24T05:06:32;21.00;99.90
31038;DHT22;17702;47.590;7.666;2023-07-24T05:08:58;21.00;99.90
31038;DHT22;17702;47.590;7.666;2023-07-24T05:11:23;21.00;99.90
31038;DHT22;17702;47.590;7.666;2023-07-24T05:13:49;21.00;99.90
31038;DHT22;17702;47.590;7.666;2023-07-24T05:16:14;21.00;99.90
31038;DHT22;17702;47.590;7.666;2023-07-24T05:18:40;21.00;99.90
31038;DHT22;17702;47.590;7.666;2023-07-24T05:21:05;21.00;99.90
31038;DHT22;17702;47.590;7.666;2023-07-24T05:23:31;20.90;99.90
31038;DHT22;17702;47.590;7.666;2023-07-24T05:25:58;20.90;99.90
31038;DHT22;17702;47.590;7.666;2023-07-24T05:28:25;20.80;99.90
31038;DHT22;17702;47.590;7.666;2023-07-24T05:30:51;20.80;99.90
31038;DHT22;17702;47.590;7.666;2023-07-24T05:33:17;20.80;99.90
31038;DHT22;17702;47.590;7.666;2023-07-24T05:35:42;20.80;99.90
31038;DHT22;17702;47.590;7.666;2023-07-24T05:38:08;20.80;99.90
31038;DHT22;17702;47.590;7.666;2023-07-24T05:40:34;20.90;99.90
31038;DHT22;17702;47.590;7.666;2023-07-24T05:43:00;20.90;99.90
31038;DHT22;17702;47.590;7.666;2023-07-24T05:45:27;20.90;99.90
31038;DHT22;17702;47.590;7.666;2023-07-24T05:47:52;20.90;99.90
31038;DHT22;17702;47.590;7.666;2023-07-24T05:50:18;20.90;99.90
31038;DHT22;17702;47.590;7.666;2023-07-24T05:52:44;20.90;99.90
31038;DHT22;17702;47.590;7.666;2023-07-24T05:55:09;20.80;99.90
31038;DHT22;17702;47.590;7.666;2023-07-24T05:57:36;20.90;99.90
31038;DHT22;17702;47.590;7.666;2023-07-24T06:00:05;20.90;99.90
31038;DHT22;17702;47.590;7.666;2023-07-24T06:02:31;20.80;99.90
31038;DHT22;17702;47.590;7.666;2023-07-24T06:04:57;20.80;99.90
31038;DHT22;17702;47.590;7.666;2023-07-24T06:07:22;20.90;99.90
31038;DHT22;17702;47.590;7.666;2023-07-24T06:09:48;21.00;99.90
31038;DHT22;17702;47.590;7.666;2023-07-24T06:12:14;21.00;99.90
31038;DHT22;17702;47.590;7.666;2023-07-24T06:14:39;21.10;99.90
31038;DHT22;17702;47.590;7.666;2023-07-24T06:17:05;21.10;99.90
31038;DHT22;17702;47.590;7.666;2023-07-24T06:19:30;21.10;99.90
31038;DHT22;17702;47.590;7.666;2023-07-24T06:21:56;21.10;99.90
31038;DHT22;17702;47.590;7.666;2023-07-24T06:24:21;21.10;99.90
31038;DHT22;17702;47.590;7.666;2023-07-24T06:26:49;21.10;99.90
31038;DHT22;17702;47.590;7.666;2023-07-24T06:29:15;21.20;99.90
31038;DHT22;17702;47.590;7.666;2023-07-24T06:31:41;21.20;99.90
31038;DHT22;17702;47.590;7.666;2023-07-24T06:34:06;21.10;99.90
31038;DHT22;17702;47.590;7.666;2023-07-24T06:36:32;21.20;99.90
31038;DHT22;17702;47.590;7.666;2023-07-24T06:38:57;21.20;99.90
31038;DHT22;17702;47.590;7.666;2023-07-24T06:41:23;21.20;99.90
31038;DHT22;17702;47.590;7.666;2023-07-24T06:43:49;21.40;99.90
31038;DHT22;17702;47.590;7.666;2023-07-24T06:46:15;21.50;99.90
31038;DHT22;17702;47.590;7.666;2023-07-24T06:48:40;21.50;99.90
31038;DHT22;17702;47.590;7.666;2023-07-24T06:51:06;21.50;99.90
31038;DHT22;17702;47.590;7.666;2023-07-24T06:53:31;21.60;99.90
31038;DHT22;17702;47.590;7.666;2023-07-24T06:55:57;21.60;99.90
31038;DHT22;17702;47.590;7.666;2023-07-24T06:58:23;21.70;99.90
31038;DHT22;17702;47.590;7.666;2023-07-24T07:00:48;21.80;99.90
31038;DHT22;17702;47.590;7.666;2023-07-24T07:03:14;21.80;99.90
31038;DHT22;17702;47.590;7.666;2023-07-24T07:05:39;21.80;99.90
31038;DHT22;17702;47.590;7.666;2023-07-24T07:08:05;21.90;99.90
31038;DHT22;17702;47.590;7.666;2023-07-24T07:10:31;21.90;99.90
31038;DHT22;17702;47.590;7.666;2023-07-24T07:12:57;21.90;99.90
31038;DHT22;17702;47.590;7.666;2023-07-24T07:15:22;21.90;99.90
31038;DHT22;17702;47.590;7.666;2023-07-24T07:17:48;21.90;99.90
31038;DHT22;17702;47.590;7.666;2023-07-24T07:20:14;22.00;99.90
31038;DHT22;17702;47.590;7.666;2023-07-24T07:22:39;21.90;99.90
31038;DHT22;17702;47.590;7.666;2023-07-24T07:25:05;21.90;99.90
31038;DHT22;17702;47.590;7.666;2023-07-24T07:27:31;22.00;99.90
31038;DHT22;17702;47.590;7.666;2023-07-24T07:29:56;22.00;99.90
31038;DHT22;17702;47.590;7.666;2023-07-24T07:32:22;22.00;99.90
31038;DHT22;17702;47.590;7.666;2023-07-24T07:34:47;22.00;99.90
31038;DHT22;17702;47.590;7.666;2023-07-24T07:37:13;22.10;99.90
31038;DHT22;17702;47.590;7.666;2023-07-24T07:39:39;22.10;99.90
31038;DHT22;17702;47.590;7.666;2023-07-24T07:42:04;22.10;99.90
31038;DHT22;17702;47.590;7.666;2023-07-24T07:44:30;22.10;99.90
31038;DHT22;17702;47.590;7.666;2023-07-24T07:46:56;22.20;99.90
31038;DHT22;17702;47.590;7.666;2023-07-24T07:49:22;22.10;99.90
31038;DHT22;17702;47.590;7.666;2023-07-24T07:51:48;22.20;99.90
31038;DHT22;17702;47.590;7.666;2023-07-24T07:54:13;22.10;99.90
31038;DHT22;17702;47.590;7.666;2023-07-24T07:56:39;22.20;99.90
31038;DHT22;17702;47.590;7.666;2023-07-24T07:59:05;22.20;99.90
31038;DHT22;17702;47.590;7.666;2023-07-24T08:01:30;22.20;99.90
31038;DHT22;17702;47.590;7.666;2023-07-24T08:03:56;22.20;99.90
31038;DHT22;17702;47.590;7.666;2023-07-24T08:06:22;22.30;99.90
31038;DHT22;17702;47.590;7.666;2023-07-24T08:08:48;22.40;99.90
31038;DHT22;17702;47.590;7.666;2023-07-24T08:11:13;22.50;99.90
31038;DHT22;17702;47.590;7.666;2023-07-24T08:13:39;22.60;99.90
31038;DHT22;17702;47.590;7.666;2023-07-24T08:16:12;22.80;99.90
31038;DHT22;17702;47.590;7.666;2023-07-24T08:18:42;23.00;99.90
31038;DHT22;17702;47.590;7.666;2023-07-24T08:21:08;23.20;99.90
31038;DHT22;17702;47.590;7.666;2023-07-24T08:23:33;23.40;99.90
31038;DHT22;17702;47.590;7.666;2023-07-24T08:25:59;23.50;99.90
31038;DHT22;17702;47.590;7.666;2023-07-24T08:28:25;23.60;99.90
31038;DHT22;17702;47.590;7.666;2023-07-24T08:31:00;23.70;99.90
31038;DHT22;17702;47.590;7.666;2023-07-24T08:33:28;23.70;99.90
31038;DHT22;17702;47.590;7.666;2023-07-24T08:36:06;23.80;99.90
31038;DHT22;17702;47.590;7.666;2023-07-24T08:38:33;23.80;99.90
31038;DHT22;17702;47.590;7.666;2023-07-24T08:41:06;23.90;99.90
31038;DHT22;17702;47.590;7.666;2023-07-24T08:43:33;24.00;99.90
31038;DHT22;17702;47.590;7.666;2023-07-24T08:46:00;24.10;99.90
31038;DHT22;17702;47.590;7.666;2023-07-24T08:48:30;24.20;99.60
31038;DHT22;17702;47.590;7.666;2023-07-24T08:50:57;24.20;99.80
31038;DHT22;17702;47.590;7.666;2023-07-24T08:53:24;24.10;99.60
31038;DHT22;17702;47.590;7.666;2023-07-24T08:55:52;24.10;99.50
31038;DHT22;17702;47.590;7.666;2023-07-24T08:58:20;24.00;99.90
31038;DHT22;17702;47.590;7.666;2023-07-24T09:00:45;24.00;99.90
31038;DHT22;17702;47.590;7.666;2023-07-24T09:03:11;24.00;99.20
31038;DHT22;17702;47.590;7.666;2023-07-24T09:05:37;24.00;98.70
31038;DHT22;17702;47.590;7.666;2023-07-24T09:08:02;24.00;98.60
31038;DHT22;17702;47.590;7.666;2023-07-24T09:10:28;24.00;99.70
31038;DHT22;17702;47.590;7.666;2023-07-24T09:12:54;24.00;99.10
31038;DHT22;17702;47.590;7.666;2023-07-24T09:15:20;24.00;99.00
31038;DHT22;17702;47.590;7.666;2023-07-24T09:17:50;23.80;99.70
31038;DHT22;17702;47.590;7.666;2023-07-24T09:20:16;23.70;98.80
31038;DHT22;17702;47.590;7.666;2023-07-24T09:22:52;23.40;97.40
31038;DHT22;17702;47.590;7.666;2023-07-24T09:25:19;23.20;98.30
31038;DHT22;17702;47.590;7.666;2023-07-24T09:27:54;23.00;98.30
31038;DHT22;17702;47.590;7.666;2023-07-24T09:30:20;23.00;99.30
31038;DHT22;17702;47.590;7.666;2023-07-24T09:32:55;22.90;98.30
31038;DHT22;17702;47.590;7.666;2023-07-24T09:35:21;22.80;97.90
31038;DHT22;17702;47.590;7.666;2023-07-24T09:38:05;22.70;98.50
31038;DHT22;17702;47.590;7.666;2023-07-24T09:40:44;22.70;98.00
31038;DHT22;17702;47.590;7.666;2023-07-24T09:45:43;22.40;99.80
31038;DHT22;17702;47.590;7.666;2023-07-24T09:48:12;22.40;99.60
31038;DHT22;17702;47.590;7.666;2023-07-24T09:50:40;22.30;99.90
31038;DHT22;17702;47.590;7.666;2023-07-24T09:53:12;22.10;99.90
31038;DHT22;17702;47.590;7.666;2023-07-24T09:55:47;22.00;99.90
31038;DHT22;17702;47.590;7.666;2023-07-24T09:58:15;21.90;99.90
